Stations météo

réclame
Mon MeteoGroup
Kinbrace, Grande-Bretagne (99016): Température de l'air & dewpoint: 18.05.2019 16:00:00 - 24.05.2019 16:00:00 (BST)Kinbrace, Grande-Bretagne (99016): Vitesse du vent & gusts: 18.05.2019 16:00:00 - 24.05.2019 16:00:00 (BST)Kinbrace, Grande-Bretagne (99016): Direction du vent: 18.05.2019 16:00:00 - 24.05.2019 16:00:00 (BST)Kinbrace, Grande-Bretagne (99016): Quantités de précipitations: 18.05.2019 16:00:00 - 24.05.2019 16:00:00 (BST)
Date & Time tt [°C] td [°C] ff [km/h] ff [knt] fx [km/h] fx [knt] dd rr [mm]
24.05.2019 16:00:00 10,4 6,3 28 15 - - WNW -
24.05.2019 15:00:00 10,7 5,8 29 16 - - NW 0,0
24.05.2019 14:00:00 11,2 6,0 26 14 - - NW 0,0
24.05.2019 13:00:00 11,5 5,9 34 18 46 25 NW 0,0
24.05.2019 12:00:00 11,1 5,3 29 16 - - NW 0,0
24.05.2019 11:00:00 10,6 5,5 26 14 - - NW 0,0
24.05.2019 10:00:00 9,1 4,8 26 14 - - WNW 0,0
24.05.2019 09:00:00 8,9 4,8 22 12 - - NW 0,0
24.05.2019 08:00:00 8,5 5,0 21 11 46 25 NW 0,0
24.05.2019 07:00:00 8,3 5,2 34 18 - - NNW 0,0
24.05.2019 06:00:00 7,6 6,0 16 9 - - NW 0,0
24.05.2019 05:00:00 7,4 6,2 21 11 - - NW 0,0
24.05.2019 04:00:00 7,6 6,4 21 11 - - NW 0,0
24.05.2019 03:00:00 7,8 6,5 13 7 - - NNW 0,0
24.05.2019 02:00:00 8,0 6,9 22 12 - - NW 0,0
24.05.2019 01:00:00 8,0 7,0 18 10 - - NW 0,0
24.05.2019 00:00:00 8,1 7,0 28 15 - - NW 0,0
23.05.2019 23:00:00 8,2 7,4 28 15 - - NW 0,0
23.05.2019 22:00:00 8,2 7,6 21 11 - - NW 0,0
23.05.2019 21:00:00 8,4 7,8 26 14 - - NW 0,0
23.05.2019 20:00:00 8,4 7,7 31 17 46 25 NW 0,2
23.05.2019 19:00:00 8,4 7,7 29 16 - - NW 0,0
23.05.2019 18:00:00 8,6 7,5 29 16 52 28 NW 0,0
23.05.2019 17:00:00 9,1 7,6 31 17 46 25 NW 0,0
23.05.2019 16:00:00 8,8 7,7 29 16 - - NW 0,0
23.05.2019 15:00:00 8,9 7,5 31 17 50 27 NW 0,0
23.05.2019 14:00:00 9,2 7,6 31 17 54 29 NW 0,0
23.05.2019 13:00:00 9,9 7,3 39 21 54 29 WNW 0,0
23.05.2019 12:00:00 9,3 7,8 26 14 48 26 NW 0,0
23.05.2019 11:00:00 9,3 8,1 24 13 - - NW 0,2
23.05.2019 10:00:00 8,5 7,7 21 11 - - NW 0,0
23.05.2019 09:00:00 8,2 7,3 24 13 - - WNW 0,0
23.05.2019 08:00:00 8,2 7,7 16 9 - - WNW 0,2
23.05.2019 07:00:00 7,7 7,4 13 7 - - NW 0,6
23.05.2019 06:00:00 7,8 7,4 15 8 - - NW 0,6
23.05.2019 05:00:00 7,8 7,3 16 9 - - NNW 0,6
23.05.2019 04:00:00 8,1 7,6 22 12 - - NNW 0,4
23.05.2019 03:00:00 8,4 8,1 13 7 - - NW 1,0
23.05.2019 02:00:00 8,0 7,7 13 7 - - NW 0,4
23.05.2019 01:00:00 7,9 7,5 15 8 - - NW 0,4
23.05.2019 00:00:00 8,0 7,5 21 11 - - NW 0,8
22.05.2019 23:00:00 7,9 7,4 21 11 - - NW 0,4
22.05.2019 22:00:00 8,0 7,5 22 12 - - NW 0,4
22.05.2019 21:00:00 8,4 7,9 21 11 - - NW 0,2
22.05.2019 20:00:00 8,7 8,2 22 12 - - NW 0,4
22.05.2019 19:00:00 9,2 8,4 26 14 - - NW 0,0
22.05.2019 18:00:00 9,5 8,0 29 16 46 25 NW 0,0
22.05.2019 17:00:00 10,2 7,8 34 18 48 26 NW 0,0
22.05.2019 16:00:00 10,4 8,1 31 17 52 28 NW 0,0
22.05.2019 15:00:00 9,6 8,3 31 17 46 25 NW 0,0
22.05.2019 14:00:00 9,9 9,0 29 16 48 26 NW 0,0
22.05.2019 13:00:00 10,3 9,4 31 17 - - NW 0,2
22.05.2019 12:00:00 9,8 8,9 26 14 - - NW 0,0
22.05.2019 11:00:00 10,0 8,8 26 14 - - NW 0,0
22.05.2019 10:00:00 10,1 8,7 26 14 - - NW 0,0
22.05.2019 09:00:00 9,4 8,6 21 11 - - NNW 0,2
22.05.2019 08:00:00 9,1 8,5 18 10 - - NNW 1,6
22.05.2019 07:00:00 9,1 8,8 18 10 - - NNW 0,2
22.05.2019 06:00:00 8,7 8,4 13 7 - - NNW 0,0
22.05.2019 05:00:00 8,6 8,3 11 6 - - NW 0,0
22.05.2019 04:00:00 8,4 8,1 9 5 - - NW 1,6
22.05.2019 03:00:00 8,1 7,7 16 9 - - NW 0,8
22.05.2019 02:00:00 7,9 7,2 8 4 - - WNW 0,2
22.05.2019 01:00:00 8,0 6,1 11 6 - - WNW 0,0
22.05.2019 00:00:00 8,3 5,7 11 6 - - WNW 0,0
21.05.2019 23:00:00 8,4 5,7 15 8 - - WNW 0,0
21.05.2019 22:00:00 8,6 6,0 16 9 - - WNW 0,0
21.05.2019 21:00:00 8,9 6,3 18 10 - - NW 0,0
21.05.2019 20:00:00 9,9 5,2 22 12 - - WNW 0,0
21.05.2019 19:00:00 11,0 4,8 26 14 - - NW 0,0
21.05.2019 18:00:00 10,9 6,2 21 11 - - NW 0,0
21.05.2019 17:00:00 11,7 5,2 28 15 - - NW 0,0
21.05.2019 16:00:00 12,4 5,5 26 14 - - NW 0,0
21.05.2019 15:00:00 12,5 6,6 24 13 - - NW 0,0
21.05.2019 14:00:00 12,4 6,4 26 14 - - NW 0,0
21.05.2019 13:00:00 11,9 6,1 24 13 - - NW 0,0
21.05.2019 12:00:00 10,9 7,9 21 11 - - NW 0,0
21.05.2019 11:00:00 10,0 8,2 16 9 - - NW 0,6
21.05.2019 10:00:00 9,3 8,0 8 4 - - NW 0,4
21.05.2019 09:00:00 8,9 7,8 13 7 - - NW 0,4
21.05.2019 08:00:00 8,5 7,9 13 7 - - NW 1,2
21.05.2019 07:00:00 7,9 7,6 2 1 - - SE 0,4
21.05.2019 06:00:00 7,4 7,1 2 1 - - S 0,4
21.05.2019 05:00:00 7,0 6,6 2 1 - - SSE 0,4
21.05.2019 04:00:00 6,5 6,1 0 0 - - N 0,0
21.05.2019 03:00:00 6,5 6,1 2 1 - - N 0,2
21.05.2019 02:00:00 6,4 5,7 4 2 - - NNE 0,0
21.05.2019 01:00:00 7,0 5,9 4 2 - - N 0,0
21.05.2019 00:00:00 8,4 7,2 15 8 - - N 0,0
20.05.2019 23:00:00 8,9 7,9 16 9 - - NNE 0,0
20.05.2019 22:00:00 9,5 8,5 15 8 - - NNE 0,0
20.05.2019 21:00:00 9,8 9,0 11 6 - - N 0,0
20.05.2019 20:00:00 10,2 9,3 16 9 - - N 0,0
20.05.2019 19:00:00 10,8 9,9 16 9 - - N 0,4
20.05.2019 18:00:00 11,3 10,6 15 8 - - N 1,4
20.05.2019 17:00:00 11,1 10,0 16 9 - - NW 0,4
20.05.2019 16:00:00 13,2 11,1 15 8 - - NNE 0,0
20.05.2019 15:00:00 12,2 10,8 18 10 - - N 0,2
20.05.2019 14:00:00 12,3 10,9 8 4 - - NNW 0,2
20.05.2019 13:00:00 11,9 10,9 8 4 - - NNW 2,2
20.05.2019 12:00:00 10,9 10,3 8 4 - - WNW 3,2
20.05.2019 11:00:00 10,8 10,0 8 4 - - WNW 0,8
20.05.2019 10:00:00 10,9 10,3 8 4 - - NNW 0,0
20.05.2019 09:00:00 10,2 9,8 8 4 - - NNW 1,6
20.05.2019 08:00:00 9,9 9,5 9 5 - - NW 1,4
20.05.2019 07:00:00 10,1 9,6 8 4 - - NW 0,0
20.05.2019 06:00:00 10,0 9,4 8 4 - - NNW 0,0
20.05.2019 05:00:00 10,0 9,2 8 4 - - N 0,0
20.05.2019 04:00:00 10,1 9,5 11 6 - - NNE 0,0
20.05.2019 03:00:00 10,0 9,5 2 1 - - NNW 0,4
20.05.2019 02:00:00 10,0 9,5 4 2 - - NW 0,2
20.05.2019 01:00:00 9,8 8,9 5 3 - - NNW 0,0
20.05.2019 00:00:00 10,5 9,4 5 3 - - N 0,0
19.05.2019 23:00:00 11,1 9,8 5 3 - - NNE 0,0
19.05.2019 22:00:00 11,5 8,9 4 2 - - W 0,0
19.05.2019 21:00:00 12,0 8,9 4 2 - - S 0,0
19.05.2019 20:00:00 12,4 8,8 8 4 - - S 0,0
19.05.2019 19:00:00 12,2 9,8 11 6 - - E 0,0
19.05.2019 18:00:00 13,5 8,8 13 7 - - SE 0,0
19.05.2019 17:00:00 14,7 9,0 5 3 - - SW 0,0
19.05.2019 16:00:00 14,7 9,5 11 6 - - SSE 0,0
19.05.2019 15:00:00 15,2 7,9 8 4 - - SSW 0,0
19.05.2019 14:00:00 15,0 9,9 5 3 - - ENE 0,0
19.05.2019 13:00:00 11,8 8,9 4 2 - - S 0,0
19.05.2019 12:00:00 11,4 9,2 5 3 - - SE 0,0
19.05.2019 11:00:00 11,2 9,4 13 7 - - SE 0,0
19.05.2019 10:00:00 10,2 9,5 8 4 - - E 0,0
19.05.2019 09:00:00 9,6 9,0 11 6 - - SSE 0,0
19.05.2019 08:00:00 9,4 8,7 9 5 - - SE 0,0
19.05.2019 07:00:00 9,6 8,6 13 7 - - SE 0,0
19.05.2019 06:00:00 9,6 8,6 15 8 - - SE 0,0
19.05.2019 05:00:00 9,5 8,6 9 5 - - SE 0,0
19.05.2019 04:00:00 9,7 8,6 2 1 - - SSE 0,0
19.05.2019 03:00:00 9,7 8,8 9 5 - - SE 0,0
19.05.2019 02:00:00 9,7 8,9 11 6 - - SSE 0,0
19.05.2019 01:00:00 9,9 9,2 8 4 - - SSE 0,0
19.05.2019 00:00:00 9,6 9,0 8 4 - - ESE 0,0
18.05.2019 23:00:00 9,6 8,9 11 6 - - ESE 0,0
18.05.2019 22:00:00 9,7 8,9 5 3 - - ESE 0,0
18.05.2019 21:00:00 9,8 8,6 8 4 - - E 0,0
18.05.2019 20:00:00 9,9 8,5 9 5 - - ENE 0,0
18.05.2019 19:00:00 10,2 8,2 8 4 - - E 0,0
18.05.2019 18:00:00 10,4 8,3 8 4 - - E 0,0
18.05.2019 17:00:00 10,8 8,4 8 4 - - E 0,0
18.05.2019 16:00:00 11,3 8,3 11 6 - - E 0,0

tt = Température de l'air
td = dewpoint
ff = Vitesse du vent
fx = gusts
dd = Direction du vent
rr = Quantités de précipitations

stations d'obs. à proximité